sensor_id;sensor_type;location;lat;lon;timestamp;P1;durP1;ratioP1;P2;durP2;ratioP2
27746;SDS011;15138;51.012;4.692;2023-04-21T00:00:32;11.57;;;8.95;;
27746;SDS011;15138;51.012;4.692;2023-04-21T00:03:00;14.18;;;10.85;;
27746;SDS011;15138;51.012;4.692;2023-04-21T00:05:29;16.48;;;11.55;;
27746;SDS011;15138;51.012;4.692;2023-04-21T00:08:00;12.70;;;10.02;;
27746;SDS011;15138;51.012;4.692;2023-04-21T00:10:28;13.70;;;10.15;;
27746;SDS011;15138;51.012;4.692;2023-04-21T00:12:57;15.32;;;12.38;;
27746;SDS011;15138;51.012;4.692;2023-04-21T00:15:25;9.10;;;7.28;;
27746;SDS011;15138;51.012;4.692;2023-04-21T00:17:54;16.15;;;11.35;;
27746;SDS011;15138;51.012;4.692;2023-04-21T00:20:23;16.60;;;12.27;;
27746;SDS011;15138;51.012;4.692;2023-04-21T00:22:52;17.40;;;13.25;;
27746;SDS011;15138;51.012;4.692;2023-04-21T00:25:22;14.57;;;11.77;;
27746;SDS011;15138;51.012;4.692;2023-04-21T00:27:50;10.13;;;7.93;;
27746;SDS011;15138;51.012;4.692;2023-04-21T00:30:19;12.23;;;9.38;;
27746;SDS011;15138;51.012;4.692;2023-04-21T00:32:47;13.88;;;9.65;;
27746;SDS011;15138;51.012;4.692;2023-04-21T00:35:16;15.20;;;11.93;;
27746;SDS011;15138;51.012;4.692;2023-04-21T00:37:44;18.33;;;13.13;;
27746;SDS011;15138;51.012;4.692;2023-04-21T00:40:13;17.08;;;13.55;;
27746;SDS011;15138;51.012;4.692;2023-04-21T00:42:42;13.18;;;10.50;;
27746;SDS011;15138;51.012;4.692;2023-04-21T00:45:11;18.23;;;14.30;;
27746;SDS011;15138;51.012;4.692;2023-04-21T00:47:40;13.90;;;10.38;;
27746;SDS011;15138;51.012;4.692;2023-04-21T00:50:09;16.17;;;11.70;;
27746;SDS011;15138;51.012;4.692;2023-04-21T00:52:38;19.75;;;15.63;;
27746;SDS011;15138;51.012;4.692;2023-04-21T00:55:07;18.42;;;14.85;;
27746;SDS011;15138;51.012;4.692;2023-04-21T00:57:36;20.05;;;16.13;;
27746;SDS011;15138;51.012;4.692;2023-04-21T01:00:06;13.57;;;10.57;;
27746;SDS011;15138;51.012;4.692;2023-04-21T01:02:36;18.60;;;14.18;;
27746;SDS011;15138;51.012;4.692;2023-04-21T01:05:05;18.40;;;14.35;;
27746;SDS011;15138;51.012;4.692;2023-04-21T01:07:34;23.38;;;17.92;;
27746;SDS011;15138;51.012;4.692;2023-04-21T01:10:03;16.70;;;12.75;;
27746;SDS011;15138;51.012;4.692;2023-04-21T01:12:32;24.23;;;17.42;;
27746;SDS011;15138;51.012;4.692;2023-04-21T01:15:00;19.25;;;14.43;;
27746;SDS011;15138;51.012;4.692;2023-04-21T01:17:30;16.90;;;12.30;;
27746;SDS011;15138;51.012;4.692;2023-04-21T01:20:04;13.95;;;11.05;;
27746;SDS011;15138;51.012;4.692;2023-04-21T01:22:37;19.67;;;13.88;;
27746;SDS011;15138;51.012;4.692;2023-04-21T01:25:06;15.20;;;11.85;;
27746;SDS011;15138;51.012;4.692;2023-04-21T01:27:34;19.25;;;14.88;;
27746;SDS011;15138;51.012;4.692;2023-04-21T01:30:03;22.38;;;17.48;;
27746;SDS011;15138;51.012;4.692;2023-04-21T01:32:32;23.33;;;16.52;;
27746;SDS011;15138;51.012;4.692;2023-04-21T01:35:01;23.05;;;17.88;;
27746;SDS011;15138;51.012;4.692;2023-04-21T01:37:30;18.58;;;13.18;;
27746;SDS011;15138;51.012;4.692;2023-04-21T01:40:00;23.73;;;17.30;;
27746;SDS011;15138;51.012;4.692;2023-04-21T01:42:30;21.50;;;15.48;;
27746;SDS011;15138;51.012;4.692;2023-04-21T01:44:59;14.38;;;10.82;;
27746;SDS011;15138;51.012;4.692;2023-04-21T01:47:27;26.63;;;19.27;;
27746;SDS011;15138;51.012;4.692;2023-04-21T01:49:56;23.63;;;18.77;;
27746;SDS011;15138;51.012;4.692;2023-04-21T01:52:24;25.85;;;18.80;;
27746;SDS011;15138;51.012;4.692;2023-04-21T01:54:53;19.48;;;15.57;;
27746;SDS011;15138;51.012;4.692;2023-04-21T01:57:23;20.60;;;16.00;;
27746;SDS011;15138;51.012;4.692;2023-04-21T01:59:52;27.02;;;20.55;;
27746;SDS011;15138;51.012;4.692;2023-04-21T02:02:20;18.02;;;14.15;;
27746;SDS011;15138;51.012;4.692;2023-04-21T02:04:49;18.30;;;14.75;;
27746;SDS011;15138;51.012;4.692;2023-04-21T02:07:17;22.35;;;16.75;;
27746;SDS011;15138;51.012;4.692;2023-04-21T02:09:45;20.17;;;13.90;;
27746;SDS011;15138;51.012;4.692;2023-04-21T02:12:14;21.15;;;16.10;;
27746;SDS011;15138;51.012;4.692;2023-04-21T02:14:44;19.67;;;15.60;;
27746;SDS011;15138;51.012;4.692;2023-04-21T02:17:13;22.45;;;17.13;;
27746;SDS011;15138;51.012;4.692;2023-04-21T02:19:42;17.45;;;13.70;;
27746;SDS011;15138;51.012;4.692;2023-04-21T02:22:10;23.02;;;18.08;;
27746;SDS011;15138;51.012;4.692;2023-04-21T02:24:39;24.95;;;18.27;;
27746;SDS011;15138;51.012;4.692;2023-04-21T02:27:07;19.35;;;15.35;;
27746;SDS011;15138;51.012;4.692;2023-04-21T02:29:35;21.38;;;16.27;;
27746;SDS011;15138;51.012;4.692;2023-04-21T02:32:05;18.92;;;15.23;;
27746;SDS011;15138;51.012;4.692;2023-04-21T02:34:50;26.27;;;20.13;;
27746;SDS011;15138;51.012;4.692;2023-04-21T02:37:19;15.05;;;11.43;;
27746;SDS011;15138;51.012;4.692;2023-04-21T02:39:48;26.60;;;20.77;;
27746;SDS011;15138;51.012;4.692;2023-04-21T02:42:16;28.25;;;21.80;;
27746;SDS011;15138;51.012;4.692;2023-04-21T02:44:44;21.20;;;16.73;;
27746;SDS011;15138;51.012;4.692;2023-04-21T02:47:15;20.70;;;15.80;;
27746;SDS011;15138;51.012;4.692;2023-04-21T02:49:43;15.90;;;10.90;;
27746;SDS011;15138;51.012;4.692;2023-04-21T02:52:12;20.63;;;15.90;;
27746;SDS011;15138;51.012;4.692;2023-04-21T02:54:41;18.30;;;13.38;;
27746;SDS011;15138;51.012;4.692;2023-04-21T02:57:09;31.02;;;23.80;;
27746;SDS011;15138;51.012;4.692;2023-04-21T02:59:38;27.98;;;20.65;;
27746;SDS011;15138;51.012;4.692;2023-04-21T03:02:06;22.10;;;17.05;;
27746;SDS011;15138;51.012;4.692;2023-04-21T03:04:36;27.00;;;20.52;;
27746;SDS011;15138;51.012;4.692;2023-04-21T03:07:04;24.83;;;19.02;;
27746;SDS011;15138;51.012;4.692;2023-04-21T03:09:38;28.25;;;21.33;;
27746;SDS011;15138;51.012;4.692;2023-04-21T03:12:07;22.70;;;17.75;;
27746;SDS011;15138;51.012;4.692;2023-04-21T03:14:35;24.95;;;17.98;;
27746;SDS011;15138;51.012;4.692;2023-04-21T03:17:04;18.55;;;14.35;;
27746;SDS011;15138;51.012;4.692;2023-04-21T03:19:32;30.25;;;23.02;;
27746;SDS011;15138;51.012;4.692;2023-04-21T03:22:02;22.60;;;17.05;;
27746;SDS011;15138;51.012;4.692;2023-04-21T03:24:30;25.45;;;19.20;;
27746;SDS011;15138;51.012;4.692;2023-04-21T03:26:59;24.63;;;19.27;;
27746;SDS011;15138;51.012;4.692;2023-04-21T03:29:28;29.13;;;21.65;;
27746;SDS011;15138;51.012;4.692;2023-04-21T03:31:56;32.42;;;25.42;;
27746;SDS011;15138;51.012;4.692;2023-04-21T03:34:25;18.27;;;14.07;;
27746;SDS011;15138;51.012;4.692;2023-04-21T03:36:53;27.13;;;20.95;;
27746;SDS011;15138;51.012;4.692;2023-04-21T03:39:23;18.42;;;13.82;;
27746;SDS011;15138;51.012;4.692;2023-04-21T03:41:52;20.90;;;16.02;;
27746;SDS011;15138;51.012;4.692;2023-04-21T03:44:20;29.20;;;21.90;;
27746;SDS011;15138;51.012;4.692;2023-04-21T03:46:51;29.65;;;21.98;;
27746;SDS011;15138;51.012;4.692;2023-04-21T03:49:19;28.35;;;20.30;;
27746;SDS011;15138;51.012;4.692;2023-04-21T03:51:48;23.98;;;18.77;;
27746;SDS011;15138;51.012;4.692;2023-04-21T03:54:16;22.05;;;15.23;;
27746;SDS011;15138;51.012;4.692;2023-04-21T03:56:46;19.63;;;15.20;;
27746;SDS011;15138;51.012;4.692;2023-04-21T03:59:15;23.98;;;17.95;;
27746;SDS011;15138;51.012;4.692;2023-04-21T04:01:44;29.60;;;22.27;;
27746;SDS011;15138;51.012;4.692;2023-04-21T04:04:12;15.55;;;12.52;;
27746;SDS011;15138;51.012;4.692;2023-04-21T04:06:41;26.85;;;20.05;;
27746;SDS011;15138;51.012;4.692;2023-04-21T04:09:09;24.77;;;18.85;;
27746;SDS011;15138;51.012;4.692;2023-04-21T04:11:38;19.90;;;14.40;;
27746;SDS011;15138;51.012;4.692;2023-04-21T04:14:08;15.13;;;11.07;;
27746;SDS011;15138;51.012;4.692;2023-04-21T04:16:36;30.58;;;22.38;;
27746;SDS011;15138;51.012;4.692;2023-04-21T04:19:05;19.42;;;14.50;;
27746;SDS011;15138;51.012;4.692;2023-04-21T04:21:33;16.33;;;12.15;;
27746;SDS011;15138;51.012;4.692;2023-04-21T04:24:02;18.75;;;14.73;;
27746;SDS011;15138;51.012;4.692;2023-04-21T04:26:31;26.00;;;19.27;;
27746;SDS011;15138;51.012;4.692;2023-04-21T04:29:00;30.55;;;23.05;;
27746;SDS011;15138;51.012;4.692;2023-04-21T04:31:31;26.90;;;18.83;;
27746;SDS011;15138;51.012;4.692;2023-04-21T04:34:00;29.85;;;21.38;;
27746;SDS011;15138;51.012;4.692;2023-04-21T04:36:28;26.80;;;20.17;;
27746;SDS011;15138;51.012;4.692;2023-04-21T04:38:57;31.25;;;23.58;;
27746;SDS011;15138;51.012;4.692;2023-04-21T04:41:27;23.17;;;17.15;;
27746;SDS011;15138;51.012;4.692;2023-04-21T04:43:58;27.13;;;20.67;;
27746;SDS011;15138;51.012;4.692;2023-04-21T04:46:29;26.23;;;20.73;;
27746;SDS011;15138;51.012;4.692;2023-04-21T04:49:00;23.85;;;17.65;;
27746;SDS011;15138;51.012;4.692;2023-04-21T04:51:28;27.77;;;20.58;;
27746;SDS011;15138;51.012;4.692;2023-04-21T04:53:58;27.55;;;20.40;;
27746;SDS011;15138;51.012;4.692;2023-04-21T04:56:26;25.80;;;18.88;;
27746;SDS011;15138;51.012;4.692;2023-04-21T04:58:56;35.45;;;26.42;;
27746;SDS011;15138;51.012;4.692;2023-04-21T05:01:25;31.35;;;23.10;;
27746;SDS011;15138;51.012;4.692;2023-04-21T05:03:56;33.00;;;24.48;;
27746;SDS011;15138;51.012;4.692;2023-04-21T05:06:26;30.90;;;22.75;;
27746;SDS011;15138;51.012;4.692;2023-04-21T05:08:55;31.38;;;23.30;;
27746;SDS011;15138;51.012;4.692;2023-04-21T05:11:23;28.50;;;21.77;;
27746;SDS011;15138;51.012;4.692;2023-04-21T05:13:52;26.25;;;18.90;;
27746;SDS011;15138;51.012;4.692;2023-04-21T05:16:20;34.92;;;25.83;;
27746;SDS011;15138;51.012;4.692;2023-04-21T05:18:49;30.00;;;21.63;;
27746;SDS011;15138;51.012;4.692;2023-04-21T05:21:22;34.50;;;25.08;;
27746;SDS011;15138;51.012;4.692;2023-04-21T05:23:54;28.67;;;21.13;;
27746;SDS011;15138;51.012;4.692;2023-04-21T05:26:23;30.50;;;20.80;;
27746;SDS011;15138;51.012;4.692;2023-04-21T05:28:53;31.08;;;21.20;;
27746;SDS011;15138;51.012;4.692;2023-04-21T05:31:22;32.47;;;23.02;;
27746;SDS011;15138;51.012;4.692;2023-04-21T05:33:51;30.75;;;21.13;;
27746;SDS011;15138;51.012;4.692;2023-04-21T05:36:19;32.60;;;24.55;;
27746;SDS011;15138;51.012;4.692;2023-04-21T05:38:50;33.63;;;23.75;;
27746;SDS011;15138;51.012;4.692;2023-04-21T05:41:20;31.63;;;23.65;;
27746;SDS011;15138;51.012;4.692;2023-04-21T05:43:49;36.58;;;25.60;;
27746;SDS011;15138;51.012;4.692;2023-04-21T05:46:17;35.78;;;25.92;;
27746;SDS011;15138;51.012;4.692;2023-04-21T05:48:46;30.88;;;22.00;;
27746;SDS011;15138;51.012;4.692;2023-04-21T05:51:14;34.03;;;23.58;;
27746;SDS011;15138;51.012;4.692;2023-04-21T05:53:43;34.60;;;25.45;;
27746;SDS011;15138;51.012;4.692;2023-04-21T05:56:12;36.20;;;25.05;;
27746;SDS011;15138;51.012;4.692;2023-04-21T05:58:42;43.08;;;30.05;;
27746;SDS011;15138;51.012;4.692;2023-04-21T06:01:10;41.42;;;28.65;;
27746;SDS011;15138;51.012;4.692;2023-04-21T06:03:40;34.30;;;23.27;;
27746;SDS011;15138;51.012;4.692;2023-04-21T06:06:09;38.28;;;24.77;;
27746;SDS011;15138;51.012;4.692;2023-04-21T06:08:38;36.15;;;25.23;;
27746;SDS011;15138;51.012;4.692;2023-04-21T06:11:07;32.67;;;22.70;;
27746;SDS011;15138;51.012;4.692;2023-04-21T06:13:35;33.70;;;24.17;;
27746;SDS011;15138;51.012;4.692;2023-04-21T06:16:07;44.15;;;31.85;;
27746;SDS011;15138;51.012;4.692;2023-04-21T06:18:35;43.10;;;31.58;;
27746;SDS011;15138;51.012;4.692;2023-04-21T06:21:04;36.42;;;24.42;;
27746;SDS011;15138;51.012;4.692;2023-04-21T06:23:32;44.25;;;31.55;;
27746;SDS011;15138;51.012;4.692;2023-04-21T06:26:01;36.65;;;25.02;;
27746;SDS011;15138;51.012;4.692;2023-04-21T06:28:30;41.83;;;30.27;;
27746;SDS011;15138;51.012;4.692;2023-04-21T06:30:59;37.60;;;27.48;;
27746;SDS011;15138;51.012;4.692;2023-04-21T06:33:29;45.17;;;31.35;;
27746;SDS011;15138;51.012;4.692;2023-04-21T06:35:57;39.40;;;27.77;;
27746;SDS011;15138;51.012;4.692;2023-04-21T06:38:26;42.85;;;30.20;;
27746;SDS011;15138;51.012;4.692;2023-04-21T06:40:54;37.13;;;24.70;;
27746;SDS011;15138;51.012;4.692;2023-04-21T06:43:23;45.72;;;33.22;;
27746;SDS011;15138;51.012;4.692;2023-04-21T06:45:51;41.22;;;29.48;;
27746;SDS011;15138;51.012;4.692;2023-04-21T06:48:19;46.53;;;31.85;;
27746;SDS011;15138;51.012;4.692;2023-04-21T06:50:48;45.85;;;32.17;;
27746;SDS011;15138;51.012;4.692;2023-04-21T06:53:17;44.70;;;32.50;;
27746;SDS011;15138;51.012;4.692;2023-04-21T06:55:47;40.00;;;27.85;;
27746;SDS011;15138;51.012;4.692;2023-04-21T06:58:15;40.17;;;26.95;;
27746;SDS011;15138;51.012;4.692;2023-04-21T07:00:46;29.40;;;20.15;;
27746;SDS011;15138;51.012;4.692;2023-04-21T07:03:14;35.72;;;25.42;;
27746;SDS011;15138;51.012;4.692;2023-04-21T07:05:43;40.10;;;29.73;;
27746;SDS011;15138;51.012;4.692;2023-04-21T07:08:13;37.13;;;27.15;;
27746;SDS011;15138;51.012;4.692;2023-04-21T07:10:43;40.17;;;26.35;;
27746;SDS011;15138;51.012;4.692;2023-04-21T07:13:11;30.33;;;21.80;;
27746;SDS011;15138;51.012;4.692;2023-04-21T07:15:39;21.65;;;14.20;;
27746;SDS011;15138;51.012;4.692;2023-04-21T07:18:08;29.63;;;20.92;;
27746;SDS011;15138;51.012;4.692;2023-04-21T07:20:36;33.33;;;24.27;;
27746;SDS011;15138;51.012;4.692;2023-04-21T07:23:04;34.60;;;24.45;;
27746;SDS011;15138;51.012;4.692;2023-04-21T07:25:34;24.65;;;17.52;;
27746;SDS011;15138;51.012;4.692;2023-04-21T07:28:02;32.90;;;24.25;;
27746;SDS011;15138;51.012;4.692;2023-04-21T07:30:30;31.95;;;22.40;;
27746;SDS011;15138;51.012;4.692;2023-04-21T07:33:00;21.92;;;15.85;;
27746;SDS011;15138;51.012;4.692;2023-04-21T07:35:28;34.42;;;24.45;;
27746;SDS011;15138;51.012;4.692;2023-04-21T07:37:56;30.58;;;21.10;;
27746;SDS011;15138;51.012;4.692;2023-04-21T07:40:25;31.65;;;22.70;;
27746;SDS011;15138;51.012;4.692;2023-04-21T07:42:54;25.90;;;18.55;;
27746;SDS011;15138;51.012;4.692;2023-04-21T07:45:23;25.98;;;19.00;;
27746;SDS011;15138;51.012;4.692;2023-04-21T07:47:51;29.40;;;18.95;;
27746;SDS011;15138;51.012;4.692;2023-04-21T07:50:20;24.83;;;19.27;;
27746;SDS011;15138;51.012;4.692;2023-04-21T07:52:48;22.95;;;18.35;;
27746;SDS011;15138;51.012;4.692;2023-04-21T07:55:16;20.70;;;15.80;;
27746;SDS011;15138;51.012;4.692;2023-04-21T07:57:45;20.92;;;15.32;;
27746;SDS011;15138;51.012;4.692;2023-04-21T08:00:15;20.90;;;16.90;;
27746;SDS011;15138;51.012;4.692;2023-04-21T08:02:43;16.58;;;12.02;;
27746;SDS011;15138;51.012;4.692;2023-04-21T08:05:12;21.27;;;16.55;;
27746;SDS011;15138;51.012;4.692;2023-04-21T08:07:41;22.23;;;16.08;;
27746;SDS011;15138;51.012;4.692;2023-04-21T08:10:09;21.00;;;14.65;;
27746;SDS011;15138;51.012;4.692;2023-04-21T08:12:37;23.33;;;17.42;;
27746;SDS011;15138;51.012;4.692;2023-04-21T08:15:06;21.38;;;15.88;;
27746;SDS011;15138;51.012;4.692;2023-04-21T08:17:36;18.83;;;14.25;;
27746;SDS011;15138;51.012;4.692;2023-04-21T08:20:05;25.88;;;17.00;;
27746;SDS011;15138;51.012;4.692;2023-04-21T08:22:34;22.13;;;15.40;;
27746;SDS011;15138;51.012;4.692;2023-04-21T08:25:03;20.55;;;15.52;;
27746;SDS011;15138;51.012;4.692;2023-04-21T08:27:32;21.95;;;14.63;;
27746;SDS011;15138;51.012;4.692;2023-04-21T08:30:00;19.20;;;15.02;;
27746;SDS011;15138;51.012;4.692;2023-04-21T08:32:29;18.08;;;14.10;;
27746;SDS011;15138;51.012;4.692;2023-04-21T08:34:58;19.00;;;15.38;;
27746;SDS011;15138;51.012;4.692;2023-04-21T08:37:27;18.48;;;14.50;;
27746;SDS011;15138;51.012;4.692;2023-04-21T08:39:55;16.77;;;12.25;;
27746;SDS011;15138;51.012;4.692;2023-04-21T08:42:23;16.77;;;11.63;;
27746;SDS011;15138;51.012;4.692;2023-04-21T08:44:52;16.35;;;12.93;;
27746;SDS011;15138;51.012;4.692;2023-04-21T08:47:20;15.57;;;11.30;;
27746;SDS011;15138;51.012;4.692;2023-04-21T08:49:50;18.55;;;13.50;;
27746;SDS011;15138;51.012;4.692;2023-04-21T08:52:21;17.80;;;13.45;;
27746;SDS011;15138;51.012;4.692;2023-04-21T08:54:49;17.02;;;13.00;;
27746;SDS011;15138;51.012;4.692;2023-04-21T08:57:18;17.25;;;13.38;;
27746;SDS011;15138;51.012;4.692;2023-04-21T08:59:47;18.90;;;12.82;;
27746;SDS011;15138;51.012;4.692;2023-04-21T09:02:15;17.65;;;12.45;;
27746;SDS011;15138;51.012;4.692;2023-04-21T09:04:46;17.95;;;13.07;;
27746;SDS011;15138;51.012;4.692;2023-04-21T09:07:30;19.35;;;13.13;;
27746;SDS011;15138;51.012;4.692;2023-04-21T09:09:59;14.88;;;11.38;;
27746;SDS011;15138;51.012;4.692;2023-04-21T09:12:27;15.95;;;11.35;;
27746;SDS011;15138;51.012;4.692;2023-04-21T09:14:56;15.60;;;10.80;;
27746;SDS011;15138;51.012;4.692;2023-04-21T09:17:27;15.40;;;12.18;;
27746;SDS011;15138;51.012;4.692;2023-04-21T09:20:07;14.98;;;10.82;;
27746;SDS011;15138;51.012;4.692;2023-04-21T09:22:42;14.90;;;11.80;;
27746;SDS011;15138;51.012;4.692;2023-04-21T09:25:14;16.15;;;12.48;;
27746;SDS011;15138;51.012;4.692;2023-04-21T09:27:43;18.17;;;12.60;;
27746;SDS011;15138;51.012;4.692;2023-04-21T09:30:12;16.23;;;11.43;;
27746;SDS011;15138;51.012;4.692;2023-04-21T09:32:45;14.80;;;10.90;;
27746;SDS011;15138;51.012;4.692;2023-04-21T09:35:13;19.45;;;12.40;;
27746;SDS011;15138;51.012;4.692;2023-04-21T09:37:43;14.80;;;11.40;;
27746;SDS011;15138;51.012;4.692;2023-04-21T09:40:12;16.67;;;11.35;;
27746;SDS011;15138;51.012;4.692;2023-04-21T09:42:41;13.93;;;10.88;;
27746;SDS011;15138;51.012;4.692;2023-04-21T09:45:10;14.63;;;12.15;;
27746;SDS011;15138;51.012;4.692;2023-04-21T09:47:42;13.02;;;10.10;;
27746;SDS011;15138;51.012;4.692;2023-04-21T09:50:15;14.55;;;10.30;;
27746;SDS011;15138;51.012;4.692;2023-04-21T09:53:08;11.15;;;8.70;;
27746;SDS011;15138;51.012;4.692;2023-04-21T09:55:41;6.78;;;4.55;;
27746;SDS011;15138;51.012;4.692;2023-04-21T09:58:10;15.15;;;9.95;;
27746;SDS011;15138;51.012;4.692;2023-04-21T10:00:41;14.23;;;9.82;;
27746;SDS011;15138;51.012;4.692;2023-04-21T10:03:10;13.02;;;10.18;;
27746;SDS011;15138;51.012;4.692;2023-04-21T10:05:40;16.75;;;10.18;;
27746;SDS011;15138;51.012;4.692;2023-04-21T10:08:10;11.35;;;9.40;;
27746;SDS011;15138;51.012;4.692;2023-04-21T10:10:38;14.77;;;8.68;;
27746;SDS011;15138;51.012;4.692;2023-04-21T10:13:11;10.48;;;8.73;;
27746;SDS011;15138;51.012;4.692;2023-04-21T10:15:41;11.10;;;9.43;;
27746;SDS011;15138;51.012;4.692;2023-04-21T10:18:16;11.65;;;9.05;;
27746;SDS011;15138;51.012;4.692;2023-04-21T10:20:51;11.98;;;8.45;;
27746;SDS011;15138;51.012;4.692;2023-04-21T10:25:50;11.88;;;9.07;;
27746;SDS011;15138;51.012;4.692;2023-04-21T10:28:18;13.07;;;9.82;;
27746;SDS011;15138;51.012;4.692;2023-04-21T10:30:47;10.55;;;8.15;;
27746;SDS011;15138;51.012;4.692;2023-04-21T10:33:16;11.07;;;7.82;;
27746;SDS011;15138;51.012;4.692;2023-04-21T10:35:57;10.25;;;6.97;;
27746;SDS011;15138;51.012;4.692;2023-04-21T10:38:32;12.80;;;7.13;;
27746;SDS011;15138;51.012;4.692;2023-04-21T10:41:19;10.63;;;8.05;;
27746;SDS011;15138;51.012;4.692;2023-04-21T10:43:52;8.85;;;7.13;;
27746;SDS011;15138;51.012;4.692;2023-04-21T10:46:30;15.20;;;10.30;;
27746;SDS011;15138;51.012;4.692;2023-04-21T10:49:06;10.70;;;7.43;;
27746;SDS011;15138;51.012;4.692;2023-04-21T10:54:22;8.55;;;6.03;;
27746;SDS011;15138;51.012;4.692;2023-04-21T10:56:52;9.70;;;7.03;;
27746;SDS011;15138;51.012;4.692;2023-04-21T10:59:21;8.63;;;6.70;;
27746;SDS011;15138;51.012;4.692;2023-04-21T11:01:50;9.40;;;7.53;;
27746;SDS011;15138;51.012;4.692;2023-04-21T11:04:19;10.13;;;6.35;;
27746;SDS011;15138;51.012;4.692;2023-04-21T11:07:03;12.70;;;8.98;;
27746;SDS011;15138;51.012;4.692;2023-04-21T11:09:32;12.02;;;8.40;;
27746;SDS011;15138;51.012;4.692;2023-04-21T11:12:02;11.05;;;7.88;;
27746;SDS011;15138;51.012;4.692;2023-04-21T11:14:32;10.88;;;8.15;;
27746;SDS011;15138;51.012;4.692;2023-04-21T11:17:02;14.27;;;10.10;;
27746;SDS011;15138;51.012;4.692;2023-04-21T11:19:31;12.05;;;9.07;;
27746;SDS011;15138;51.012;4.692;2023-04-21T11:21:59;9.57;;;6.32;;
27746;SDS011;15138;51.012;4.692;2023-04-21T11:24:28;11.60;;;8.95;;
27746;SDS011;15138;51.012;4.692;2023-04-21T11:26:56;10.13;;;7.57;;
27746;SDS011;15138;51.012;4.692;2023-04-21T11:29:27;14.57;;;9.52;;
27746;SDS011;15138;51.012;4.692;2023-04-21T11:31:56;12.88;;;9.77;;
27746;SDS011;15138;51.012;4.692;2023-04-21T11:34:25;14.23;;;10.50;;
27746;SDS011;15138;51.012;4.692;2023-04-21T11:36:54;13.30;;;9.15;;
27746;SDS011;15138;51.012;4.692;2023-04-21T11:39:22;12.75;;;9.32;;
27746;SDS011;15138;51.012;4.692;2023-04-21T11:41:51;13.55;;;9.68;;
27746;SDS011;15138;51.012;4.692;2023-04-21T11:44:33;13.43;;;10.30;;
27746;SDS011;15138;51.012;4.692;2023-04-21T11:47:11;9.55;;;7.25;;
27746;SDS011;15138;51.012;4.692;2023-04-21T11:49:44;12.30;;;9.60;;
27746;SDS011;15138;51.012;4.692;2023-04-21T11:52:23;12.45;;;9.20;;
27746;SDS011;15138;51.012;4.692;2023-04-21T11:54:57;14.02;;;9.65;;
27746;SDS011;15138;51.012;4.692;2023-04-21T11:57:26;10.63;;;8.18;;
27746;SDS011;15138;51.012;4.692;2023-04-21T11:59:58;13.90;;;7.97;;
27746;SDS011;15138;51.012;4.692;2023-04-21T12:02:27;12.85;;;9.20;;
27746;SDS011;15138;51.012;4.692;2023-04-21T12:04:57;10.15;;;7.13;;
27746;SDS011;15138;51.012;4.692;2023-04-21T12:07:28;9.52;;;7.40;;
27746;SDS011;15138;51.012;4.692;2023-04-21T12:09:57;7.18;;;5.68;;
27746;SDS011;15138;51.012;4.692;2023-04-21T12:12:25;7.38;;;6.10;;
27746;SDS011;15138;51.012;4.692;2023-04-21T12:14:54;9.00;;;7.60;;
27746;SDS011;15138;51.012;4.692;2023-04-21T12:17:24;11.85;;;8.68;;
27746;SDS011;15138;51.012;4.692;2023-04-21T12:19:52;11.07;;;7.25;;
27746;SDS011;15138;51.012;4.692;2023-04-21T12:22:21;7.32;;;5.28;;
27746;SDS011;15138;51.012;4.692;2023-04-21T12:24:50;7.22;;;4.63;;
27746;SDS011;15138;51.012;4.692;2023-04-21T12:27:18;7.30;;;5.13;;
27746;SDS011;15138;51.012;4.692;2023-04-21T12:29:48;5.22;;;4.43;;
27746;SDS011;15138;51.012;4.692;2023-04-21T12:32:17;8.88;;;5.25;;
27746;SDS011;15138;51.012;4.692;2023-04-21T12:34:47;7.95;;;5.82;;
27746;SDS011;15138;51.012;4.692;2023-04-21T12:37:15;5.55;;;4.53;;
27746;SDS011;15138;51.012;4.692;2023-04-21T12:39:44;9.00;;;4.75;;
27746;SDS011;15138;51.012;4.692;2023-04-21T12:42:12;7.13;;;5.38;;
27746;SDS011;15138;51.012;4.692;2023-04-21T12:44:41;6.40;;;4.68;;
27746;SDS011;15138;51.012;4.692;2023-04-21T12:47:09;7.20;;;4.63;;
27746;SDS011;15138;51.012;4.692;2023-04-21T12:49:38;6.80;;;4.72;;
27746;SDS011;15138;51.012;4.692;2023-04-21T12:52:07;10.25;;;6.10;;
27746;SDS011;15138;51.012;4.692;2023-04-21T12:54:36;7.13;;;5.65;;
27746;SDS011;15138;51.012;4.692;2023-04-21T12:57:04;5.07;;;4.18;;
27746;SDS011;15138;51.012;4.692;2023-04-21T12:59:33;8.15;;;4.90;;
27746;SDS011;15138;51.012;4.692;2023-04-21T13:02:02;6.20;;;3.75;;
27746;SDS011;15138;51.012;4.692;2023-04-21T13:04:30;4.50;;;3.80;;
27746;SDS011;15138;51.012;4.692;2023-04-21T13:06:59;5.20;;;3.60;;
27746;SDS011;15138;51.012;4.692;2023-04-21T13:09:29;3.67;;;2.92;;
27746;SDS011;15138;51.012;4.692;2023-04-21T13:11:58;4.30;;;3.42;;
27746;SDS011;15138;51.012;4.692;2023-04-21T13:14:27;4.60;;;2.92;;
27746;SDS011;15138;51.012;4.692;2023-04-21T13:16:55;7.65;;;3.97;;
27746;SDS011;15138;51.012;4.692;2023-04-21T13:19:24;5.75;;;4.05;;
27746;SDS011;15138;51.012;4.692;2023-04-21T13:21:54;9.25;;;4.03;;
27746;SDS011;15138;51.012;4.692;2023-04-21T13:24:22;4.95;;;3.03;;
27746;SDS011;15138;51.012;4.692;2023-04-21T13:26:53;4.93;;;3.78;;
27746;SDS011;15138;51.012;4.692;2023-04-21T13:29:22;4.55;;;3.20;;
27746;SDS011;15138;51.012;4.692;2023-04-21T13:31:54;5.63;;;3.55;;
27746;SDS011;15138;51.012;4.692;2023-04-21T13:34:23;6.10;;;3.83;;
27746;SDS011;15138;51.012;4.692;2023-04-21T13:36:52;4.68;;;3.45;;
27746;SDS011;15138;51.012;4.692;2023-04-21T13:39:20;8.02;;;3.42;;
27746;SDS011;15138;51.012;4.692;2023-04-21T13:41:49;5.80;;;3.28;;
27746;SDS011;15138;51.012;4.692;2023-04-21T13:44:21;6.13;;;3.63;;
27746;SDS011;15138;51.012;4.692;2023-04-21T13:46:49;8.10;;;4.00;;
27746;SDS011;15138;51.012;4.692;2023-04-21T13:49:19;3.97;;;3.20;;
27746;SDS011;15138;51.012;4.692;2023-04-21T13:51:47;5.35;;;3.47;;
27746;SDS011;15138;51.012;4.692;2023-04-21T13:54:16;4.95;;;3.25;;
27746;SDS011;15138;51.012;4.692;2023-04-21T13:56:45;4.78;;;3.33;;
27746;SDS011;15138;51.012;4.692;2023-04-21T13:59:14;4.53;;;3.42;;
27746;SDS011;15138;51.012;4.692;2023-04-21T14:01:43;5.97;;;3.85;;
27746;SDS011;15138;51.012;4.692;2023-04-21T14:04:12;4.93;;;3.78;;
27746;SDS011;15138;51.012;4.692;2023-04-21T14:06:41;5.13;;;3.83;;
27746;SDS011;15138;51.012;4.692;2023-04-21T14:09:09;5.47;;;4.28;;
27746;SDS011;15138;51.012;4.692;2023-04-21T14:11:38;6.40;;;4.00;;
27746;SDS011;15138;51.012;4.692;2023-04-21T14:14:06;7.30;;;5.63;;
27746;SDS011;15138;51.012;4.692;2023-04-21T14:16:35;6.65;;;4.90;;
27746;SDS011;15138;51.012;4.692;2023-04-21T14:19:06;6.13;;;5.07;;
27746;SDS011;15138;51.012;4.692;2023-04-21T14:21:35;5.45;;;4.43;;
27746;SDS011;15138;51.012;4.692;2023-04-21T14:24:04;9.32;;;6.72;;
27746;SDS011;15138;51.012;4.692;2023-04-21T14:26:32;8.40;;;5.15;;
27746;SDS011;15138;51.012;4.692;2023-04-21T14:29:00;6.80;;;5.13;;
27746;SDS011;15138;51.012;4.692;2023-04-21T14:31:29;5.07;;;3.70;;
27746;SDS011;15138;51.012;4.692;2023-04-21T14:33:58;5.78;;;4.15;;
27746;SDS011;15138;51.012;4.692;2023-04-21T14:36:28;9.55;;;5.88;;
27746;SDS011;15138;51.012;4.692;2023-04-21T14:38:56;6.65;;;4.50;;
27746;SDS011;15138;51.012;4.692;2023-04-21T14:41:25;6.38;;;4.38;;
27746;SDS011;15138;51.012;4.692;2023-04-21T14:43:53;7.97;;;5.30;;
27746;SDS011;15138;51.012;4.692;2023-04-21T14:46:23;5.28;;;4.00;;